createdAt,value
2019-04-30T00:02:34.391Z,12.41
2019-04-30T00:05:00.733Z,12.39
2019-04-30T00:07:32.537Z,12.46
2019-04-30T00:10:06.118Z,12.45
2019-04-30T00:12:39.662Z,12.42
2019-04-30T00:15:16.209Z,12.45
2019-04-30T00:17:45.997Z,12.45
2019-04-30T00:20:18.720Z,12.36
2019-04-30T00:22:50.869Z,12.28
2019-04-30T00:25:24.947Z,12.15
2019-04-30T00:28:00.244Z,12.09
2019-04-30T00:30:35.085Z,12.01
2019-04-30T00:33:08.163Z,12.02
2019-04-30T00:35:40.327Z,11.97
2019-04-30T00:38:15.132Z,11.98
2019-04-30T00:40:46.938Z,11.87
2019-04-30T00:43:18.791Z,11.81
2019-04-30T00:45:50.553Z,11.96
2019-04-30T00:48:27.994Z,11.95
2019-04-30T00:50:55.922Z,11.95
2019-04-30T00:53:27.824Z,11.90
2019-04-30T00:55:59.591Z,11.92
2019-04-30T00:58:32.004Z,11.85
2019-04-30T01:01:22.434Z,11.91
2019-04-30T01:04:00.055Z,11.93
2019-04-30T01:06:31.841Z,11.96
2019-04-30T01:09:05.418Z,11.92
2019-04-30T01:11:39.742Z,11.78
2019-04-30T01:14:13.368Z,11.57
2019-04-30T01:16:46.854Z,11.44
2019-04-30T01:19:29.170Z,11.39
2019-04-30T01:21:56.001Z,11.19
2019-04-30T01:24:31.435Z,11.27
2019-04-30T01:27:06.951Z,11.57
2019-04-30T01:29:40.753Z,11.60
2019-04-30T01:32:10.455Z,11.65
2019-04-30T01:34:44.233Z,11.54
2019-04-30T01:37:20.262Z,11.51
2019-04-30T01:39:50.607Z,11.51
2019-04-30T01:42:22.564Z,11.53
2019-04-30T01:44:55.966Z,11.02
2019-04-30T01:47:29.518Z,10.93
2019-04-30T01:50:04.876Z,11.12
2019-04-30T01:52:53.297Z,11.08
2019-04-30T01:55:50.076Z,11.19
2019-04-30T01:58:33.151Z,11.27
2019-04-30T02:01:09.110Z,11.39
2019-04-30T02:03:41.256Z,11.40
2019-04-30T02:06:13.141Z,11.21
2019-04-30T02:08:44.984Z,11.46
2019-04-30T02:11:19.095Z,11.48
2019-04-30T02:13:51.747Z,11.92
2019-04-30T02:16:23.482Z,11.89
2019-04-30T02:18:55.322Z,11.98
2019-04-30T02:21:29.924Z,11.92
2019-04-30T02:24:01.562Z,11.83
2019-04-30T02:26:33.713Z,11.96
2019-04-30T02:29:05.551Z,11.87
2019-04-30T02:31:37.330Z,12.02
2019-04-30T02:34:21.783Z,11.87
2019-04-30T02:36:59.844Z,11.93
2019-04-30T02:39:31.645Z,11.99
2019-04-30T02:42:03.746Z,12.10
2019-04-30T02:44:35.674Z,12.27
2019-04-30T02:47:10.475Z,12.23
2019-04-30T02:49:42.439Z,12.21
2019-04-30T02:52:15.898Z,12.29
2019-04-30T02:54:49.992Z,12.31
2019-04-30T02:57:23.699Z,12.24
2019-04-30T03:00:12.928Z,12.07
2019-04-30T03:02:46.331Z,12.15
2019-04-30T03:05:20.307Z,12.27
2019-04-30T03:07:53.536Z,12.04
2019-04-30T03:10:25.234Z,12.22
2019-04-30T03:13:00.173Z,12.18
2019-04-30T03:15:33.079Z,12.09
2019-04-30T03:18:25.075Z,12.28
2019-04-30T03:21:09.637Z,12.14
2019-04-30T03:23:40.999Z,11.24
2019-04-30T03:26:13.139Z,11.20
2019-04-30T03:28:44.942Z,11.33
2019-04-30T03:31:22.477Z,11.21
2019-04-30T03:33:52.736Z,11.67
2019-04-30T03:36:24.497Z,11.81
2019-04-30T03:38:56.298Z,11.83
2019-04-30T03:41:33.101Z,11.51
2019-04-30T03:44:17.274Z,11.65
2019-04-30T03:46:39.804Z,11.97
2019-04-30T03:49:13.405Z,11.95
2019-04-30T03:51:46.817Z,12.05
2019-04-30T03:54:19.519Z,12.22
2019-04-30T03:56:53.023Z,12.12
2019-04-30T03:59:24.890Z,11.87
2019-04-30T04:02:12.941Z,11.93
2019-04-30T04:04:52.812Z,12.12
2019-04-30T04:07:43.706Z,12.28
2019-04-30T04:10:34.292Z,12.19
2019-04-30T04:13:10.207Z,12.17
2019-04-30T04:15:42.007Z,12.24
2019-04-30T04:18:13.834Z,12.17
2019-04-30T04:20:45.974Z,12.14
2019-04-30T04:23:19.308Z,12.14
2019-04-30T04:25:51.395Z,11.97
2019-04-30T04:28:23.210Z,11.88
2019-04-30T04:30:55.404Z,11.40
2019-04-30T04:33:29.453Z,11.28
2019-04-30T04:36:01.906Z,11.18
2019-04-30T04:38:33.677Z,11.41
2019-04-30T04:41:05.422Z,11.27
2019-04-30T04:43:43.195Z,11.06
2019-04-30T04:46:15.397Z,11.09
2019-04-30T04:48:50.314Z,10.97
2019-04-30T04:51:36.804Z,10.95
2019-04-30T04:53:55.917Z,10.98
2019-04-30T04:56:30.246Z,10.91
2019-04-30T04:59:01.189Z,10.96
2019-04-30T05:01:35.680Z,10.85
2019-04-30T05:04:11.503Z,10.78
2019-04-30T05:06:41.536Z,10.89
2019-04-30T05:09:13.295Z,11.23
2019-04-30T05:11:45.031Z,11.24
2019-04-30T05:14:18.971Z,11.39
2019-04-30T05:16:55.285Z,11.50
2019-04-30T05:19:28.663Z,11.50
2019-04-30T05:22:01.077Z,11.49
2019-04-30T05:24:33.059Z,11.42
2019-04-30T05:27:04.877Z,11.43
2019-04-30T05:29:38.605Z,11.45
2019-04-30T05:32:10.330Z,11.33
2019-04-30T05:34:42.091Z,11.30
2019-04-30T05:37:14.220Z,11.43
2019-04-30T05:39:45.968Z,11.25
2019-04-30T05:42:18.497Z,11.29
2019-04-30T05:44:50.524Z,11.34
2019-04-30T05:47:22.388Z,11.24
2019-04-30T05:49:54.259Z,11.26
2019-04-30T05:52:29.519Z,11.23
2019-04-30T05:55:01.478Z,11.01
2019-04-30T05:57:33.259Z,11.00
2019-04-30T06:00:06.346Z,10.96
2019-04-30T06:02:39.925Z,10.97
2019-04-30T06:05:11.692Z,10.82
2019-04-30T06:07:43.611Z,10.98
2019-04-30T06:10:26.364Z,10.87
2019-04-30T06:13:09.083Z,10.80
2019-04-30T06:15:51.399Z,11.02
2019-04-30T06:18:23.152Z,10.99
2019-04-30T06:20:55.974Z,10.98
2019-04-30T06:23:29.379Z,10.98
2019-04-30T06:26:09.409Z,11.15
2019-04-30T06:28:36.657Z,11.18
2019-04-30T06:31:09.096Z,11.32
2019-04-30T06:33:41.554Z,11.45
2019-04-30T06:36:13.368Z,11.77
2019-04-30T06:38:45.599Z,11.66
2019-04-30T06:41:17.489Z,11.77
2019-04-30T06:43:49.289Z,11.78
2019-04-30T06:46:21.038Z,11.27
2019-04-30T06:48:54.982Z,11.19
2019-04-30T06:51:30.583Z,11.14
2019-04-30T06:54:00.530Z,10.97
2019-04-30T06:56:32.341Z,10.92
2019-04-30T06:59:04.239Z,11.17
2019-04-30T07:01:36.074Z,11.26
2019-04-30T07:04:07.832Z,11.45
2019-04-30T07:06:44.015Z,11.35
2019-04-30T07:09:43.610Z,11.40
2019-04-30T07:12:27.154Z,11.21
2019-04-30T07:14:52.253Z,10.97
2019-04-30T07:17:24.010Z,10.98
2019-04-30T07:20:01.301Z,10.91
2019-04-30T07:25:09.853Z,11.26
2019-04-30T07:27:42.946Z,11.25
2019-04-30T07:30:14.753Z,11.31
2019-04-30T07:32:48.230Z,11.53
2019-04-30T07:35:19.993Z,11.62
2019-04-30T07:37:54.686Z,11.66
2019-04-30T07:40:29.012Z,11.69
2019-04-30T07:43:00.350Z,11.95
2019-04-30T07:45:32.373Z,12.25
2019-04-30T07:48:04.429Z,12.29
2019-04-30T07:50:36.745Z,12.40
2019-04-30T07:53:11.205Z,12.39
2019-04-30T07:55:42.357Z,12.49
2019-04-30T07:58:14.121Z,12.80
2019-04-30T08:00:50.345Z,12.85
2019-04-30T08:03:40.349Z,12.69
2019-04-30T08:06:13.310Z,12.81
2019-04-30T08:08:45.593Z,12.75
2019-04-30T08:09:34.154Z,10.99
2019-04-30T08:11:25.629Z,12.65
2019-04-30T08:13:51.715Z,12.67
2019-04-30T08:16:24.247Z,12.73
2019-04-30T08:18:56.937Z,12.72
2019-04-30T08:21:34.322Z,12.82
2019-04-30T08:24:13.636Z,13.00
2019-04-30T08:26:47.019Z,13.07
2019-04-30T08:29:19.481Z,13.30
2019-04-30T08:31:51.447Z,13.53
2019-04-30T08:34:23.258Z,13.61
2019-04-30T08:36:56.341Z,13.70
2019-04-30T08:39:31.821Z,13.85
2019-04-30T08:42:04.070Z,13.96
2019-04-30T08:44:35.913Z,14.24
2019-04-30T08:47:11.627Z,14.23
2019-04-30T08:49:43.856Z,14.48
2019-04-30T08:52:15.897Z,14.59
2019-04-30T08:54:51.506Z,14.74
2019-04-30T08:57:24.398Z,14.99
2019-04-30T08:59:56.157Z,15.25
2019-04-30T09:02:31.067Z,15.25
2019-04-30T09:05:09.531Z,15.67
2019-04-30T09:07:42.297Z,15.19
2019-04-30T09:10:14.552Z,16.00
2019-04-30T09:12:46.323Z,16.50
2019-04-30T09:15:18.829Z,17.11
2019-04-30T09:18:00.743Z,17.93
2019-04-30T09:20:24.267Z,20.10
2019-04-30T09:22:56.086Z,21.44
2019-04-30T09:25:28.701Z,21.50
2019-04-30T09:28:00.616Z,22.68
2019-04-30T09:30:33.511Z,22.21
2019-04-30T09:33:05.278Z,23.46
2019-04-30T09:35:39.519Z,23.97
2019-04-30T09:38:11.587Z,24.06
2019-04-30T09:40:43.664Z,24.31
2019-04-30T09:43:15.851Z,25.00
2019-04-30T09:45:51.029Z,24.81
2019-04-30T09:48:25.354Z,25.92
2019-04-30T09:51:01.256Z,26.10
2019-04-30T09:53:33.368Z,26.26
2019-04-30T09:56:05.130Z,24.31
2019-04-30T09:58:40.463Z,25.30
2019-04-30T10:01:12.274Z,24.46
2019-04-30T10:03:44.528Z,24.49
2019-04-30T10:06:16.632Z,25.87
2019-04-30T10:08:51.333Z,26.96
2019-04-30T10:11:42.295Z,26.08
2019-04-30T10:14:14.420Z,23.80
2019-04-30T10:17:20.021Z,25.73
2019-04-30T10:19:54.352Z,27.10
2019-04-30T10:22:26.151Z,28.12
2019-04-30T10:24:59.694Z,27.47
2019-04-30T10:27:31.934Z,27.48
2019-04-30T10:30:03.767Z,28.91
2019-04-30T10:32:35.986Z,28.50
2019-04-30T10:35:07.804Z,28.37
2019-04-30T10:37:39.641Z,27.57
2019-04-30T10:40:11.475Z,24.96
2019-04-30T10:42:43.370Z,25.11
2019-04-30T10:45:15.176Z,26.11
2019-04-30T10:47:46.966Z,26.70
2019-04-30T10:50:21.353Z,26.52
2019-04-30T10:52:53.214Z,26.20
2019-04-30T10:55:24.977Z,27.15
2019-04-30T10:57:59.331Z,27.20
2019-04-30T11:00:39.434Z,26.13
2019-04-30T11:03:19.838Z,27.67
2019-04-30T11:05:45.975Z,28.40
2019-04-30T11:08:17.766Z,27.95
2019-04-30T11:10:49.534Z,26.11
2019-04-30T11:13:22.561Z,26.33
2019-04-30T11:15:54.305Z,26.17
2019-04-30T11:18:26.318Z,28.00
2019-04-30T11:20:59.762Z,26.35
2019-04-30T11:23:35.059Z,26.32
2019-04-30T11:26:07.568Z,27.18
2019-04-30T11:28:39.954Z,26.87
2019-04-30T11:31:36.750Z,26.38
2019-04-30T11:34:08.840Z,26.22
2019-04-30T11:36:42.487Z,26.04
2019-04-30T11:39:18.664Z,26.47
2019-04-30T11:41:50.622Z,27.00
2019-04-30T11:44:31.023Z,26.44
2019-04-30T11:47:29.723Z,26.31
2019-04-30T11:51:01.453Z,25.93
2019-04-30T11:53:33.450Z,25.26
2019-04-30T11:56:05.203Z,25.40
2019-04-30T11:58:38.927Z,25.04
2019-04-30T12:01:11.029Z,24.75
2019-04-30T12:03:42.769Z,24.29
2019-04-30T12:06:14.645Z,24.72
2019-04-30T12:09:03.784Z,24.81
2019-04-30T12:11:37.615Z,24.87
2019-04-30T12:14:09.224Z,25.18
2019-04-30T12:16:40.996Z,24.86
2019-04-30T12:19:13.334Z,24.92
2019-04-30T12:21:46.106Z,24.81
2019-04-30T12:24:17.867Z,25.05
2019-04-30T12:26:50.840Z,25.27
2019-04-30T12:29:22.657Z,25.68
2019-04-30T12:31:54.457Z,24.95
2019-04-30T12:34:26.209Z,25.55
2019-04-30T12:36:59.614Z,25.26
2019-04-30T12:39:34.012Z,24.84
2019-04-30T12:42:08.752Z,25.27
2019-04-30T12:44:40.822Z,25.34
2019-04-30T12:47:12.578Z,26.03
2019-04-30T12:50:04.306Z,25.56
2019-04-30T12:52:40.840Z,26.32
2019-04-30T12:55:33.123Z,26.49
2019-04-30T12:58:06.065Z,25.82
2019-04-30T13:00:39.238Z,26.03
2019-04-30T13:03:11.122Z,26.48
2019-04-30T13:05:43.156Z,26.12
2019-04-30T13:08:16.164Z,26.16
2019-04-30T13:10:51.429Z,26.77
2019-04-30T13:13:26.260Z,26.79
2019-04-30T13:16:00.029Z,26.74
2019-04-30T13:18:33.543Z,26.60
2019-04-30T13:21:05.280Z,27.10
2019-04-30T13:23:38.903Z,27.16
2019-04-30T13:26:10.734Z,27.34
2019-04-30T13:28:55.830Z,27.15
2019-04-30T13:31:29.442Z,27.10
2019-04-30T13:34:25.986Z,26.59
2019-04-30T13:36:59.390Z,26.76
2019-04-30T13:39:50.218Z,26.45
2019-04-30T13:42:20.597Z,26.98
2019-04-30T13:44:52.900Z,26.42
2019-04-30T13:47:25.033Z,26.64
2019-04-30T13:49:56.777Z,27.09
2019-04-30T13:52:28.910Z,26.99
2019-04-30T13:55:03.291Z,26.51
2019-04-30T13:57:35.037Z,26.41
2019-04-30T14:00:08.718Z,26.72
2019-04-30T14:02:47.633Z,26.54
2019-04-30T14:05:19.390Z,26.76
2019-04-30T14:08:13.035Z,26.25
2019-04-30T14:10:45.941Z,26.27
2019-04-30T14:13:17.683Z,26.58
2019-04-30T14:15:49.561Z,26.49
2019-04-30T14:18:28.561Z,26.05
2019-04-30T14:20:54.915Z,26.36
2019-04-30T14:23:28.574Z,26.29
2019-04-30T14:26:01.657Z,26.15
2019-04-30T14:28:33.441Z,25.92
2019-04-30T14:31:05.545Z,26.36
2019-04-30T14:33:37.278Z,26.44
2019-04-30T14:36:09.384Z,26.07
2019-04-30T14:38:41.243Z,26.26
2019-04-30T14:41:14.030Z,25.72
2019-04-30T14:43:52.051Z,25.89
2019-04-30T14:46:43.429Z,25.42
2019-04-30T14:49:33.648Z,25.79
2019-04-30T14:52:06.215Z,26.22
2019-04-30T14:54:58.657Z,26.40
2019-04-30T14:57:51.073Z,26.04
2019-04-30T15:00:40.301Z,26.02
2019-04-30T15:03:14.169Z,26.01
2019-04-30T15:05:49.468Z,26.13
2019-04-30T15:08:19.843Z,25.98
2019-04-30T15:10:51.636Z,26.16
2019-04-30T15:13:23.446Z,25.83
2019-04-30T15:15:55.475Z,26.00
2019-04-30T15:18:29.034Z,26.16
2019-04-30T15:21:00.791Z,25.95
2019-04-30T15:23:58.764Z,26.21
2019-04-30T15:26:25.756Z,25.89
2019-04-30T15:29:00.020Z,25.91
2019-04-30T15:31:32.544Z,25.69
2019-04-30T15:34:12.680Z,25.60
2019-04-30T15:36:44.396Z,25.66
2019-04-30T15:39:36.349Z,25.59
2019-04-30T15:42:09.107Z,25.44
2019-04-30T15:44:45.234Z,25.73
2019-04-30T15:47:14.390Z,25.54
2019-04-30T15:49:46.451Z,25.36
2019-04-30T15:52:18.922Z,25.57
2019-04-30T15:54:51.026Z,25.48
2019-04-30T15:57:22.791Z,25.25
2019-04-30T15:59:54.583Z,25.09
2019-04-30T16:02:57.087Z,25.08
2019-04-30T16:05:32.126Z,25.07
2019-04-30T16:08:25.560Z,25.05
2019-04-30T16:11:14.726Z,24.75
2019-04-30T16:14:18.665Z,24.64
2019-04-30T16:17:15.400Z,24.72
2019-04-30T16:19:47.473Z,24.62
2019-04-30T16:22:20.856Z,24.66
2019-04-30T16:24:54.650Z,24.59
2019-04-30T16:27:26.339Z,24.56
2019-04-30T16:29:59.499Z,24.71
2019-04-30T16:32:31.730Z,24.55
2019-04-30T16:35:03.449Z,24.50
2019-04-30T16:37:35.238Z,24.46
2019-04-30T16:40:08.304Z,24.24
2019-04-30T16:42:40.538Z,24.36
2019-04-30T16:45:14.143Z,24.36
2019-04-30T16:47:45.925Z,24.05
2019-04-30T16:50:18.796Z,24.14
2019-04-30T16:52:52.441Z,23.90
2019-04-30T16:55:24.212Z,23.98
2019-04-30T16:57:56.292Z,24.00
2019-04-30T17:00:29.074Z,23.76
2019-04-30T17:03:06.201Z,23.87
2019-04-30T17:05:45.413Z,23.74
2019-04-30T17:08:40.158Z,23.77
2019-04-30T17:11:33.875Z,23.73
2019-04-30T17:14:07.936Z,23.68
2019-04-30T17:16:40.135Z,23.68
2019-04-30T17:19:13.718Z,23.51
2019-04-30T17:21:46.764Z,23.43
2019-04-30T17:24:19.399Z,23.36
2019-04-30T17:26:51.647Z,23.40
2019-04-30T17:29:23.360Z,23.31
2019-04-30T17:31:55.351Z,23.25
2019-04-30T17:34:29.140Z,23.26
2019-04-30T17:37:00.626Z,23.15
2019-04-30T17:39:34.311Z,23.12
2019-04-30T17:42:06.094Z,23.03
2019-04-30T17:44:53.798Z,23.06
2019-04-30T17:47:15.354Z,23.16
2019-04-30T17:49:48.389Z,23.17
2019-04-30T17:52:22.190Z,23.13
2019-04-30T17:54:56.698Z,23.00
2019-04-30T17:57:33.858Z,22.98
2019-04-30T18:00:02.324Z,22.94
2019-04-30T18:02:39.205Z,22.94
2019-04-30T18:05:13.807Z,22.83
2019-04-30T18:07:45.761Z,22.70
2019-04-30T18:10:19.530Z,22.71
2019-04-30T18:12:51.379Z,22.62
2019-04-30T18:15:23.181Z,22.54
2019-04-30T18:18:12.722Z,22.11
2019-04-30T18:21:21.364Z,21.86
2019-04-30T18:24:24.253Z,21.71
2019-04-30T18:27:14.961Z,21.47
2019-04-30T18:29:47.219Z,21.34
2019-04-30T18:32:20.488Z,21.26
2019-04-30T18:34:52.253Z,21.11
2019-04-30T18:37:24.393Z,21.10
2019-04-30T18:39:56.112Z,21.04
2019-04-30T18:42:29.052Z,20.90
2019-04-30T18:45:01.067Z,20.81
2019-04-30T18:47:34.332Z,20.69
2019-04-30T18:50:06.502Z,20.56
2019-04-30T18:52:40.147Z,20.54
2019-04-30T18:55:11.989Z,20.47
2019-04-30T18:57:55.759Z,20.31
2019-04-30T19:00:21.186Z,20.23
2019-04-30T19:02:52.974Z,20.11
2019-04-30T19:05:29.390Z,19.98
2019-04-30T19:08:06.216Z,19.84
2019-04-30T19:10:58.900Z,19.77
2019-04-30T19:14:01.336Z,19.66
2019-04-30T19:16:53.814Z,19.49
2019-04-30T19:19:47.294Z,19.42
2019-04-30T19:22:19.238Z,19.33
2019-04-30T19:24:57.368Z,19.30
2019-04-30T19:27:24.859Z,19.12
2019-04-30T19:29:56.753Z,19.06
2019-04-30T19:32:30.461Z,18.97
2019-04-30T19:35:02.378Z,19.03
2019-04-30T19:37:38.648Z,18.83
2019-04-30T19:40:11.644Z,18.73
2019-04-30T19:42:43.978Z,18.64
2019-04-30T19:45:15.844Z,18.52
2019-04-30T19:47:48.983Z,18.45
2019-04-30T19:50:21.120Z,18.44
2019-04-30T19:52:53.049Z,18.33
2019-04-30T19:55:24.835Z,18.25
2019-04-30T19:57:59.715Z,18.14
2019-04-30T20:00:31.147Z,18.06
2019-04-30T20:03:03.103Z,17.96
2019-04-30T20:05:35.386Z,17.94
2019-04-30T20:08:10.813Z,17.89
2019-04-30T20:10:41.138Z,17.84
2019-04-30T20:13:13.018Z,17.71
2019-04-30T20:15:44.855Z,17.71
2019-04-30T20:18:19.000Z,17.64
2019-04-30T20:20:52.701Z,17.55
2019-04-30T20:23:26.393Z,17.48
2019-04-30T20:25:58.354Z,17.41
2019-04-30T20:28:38.927Z,17.37
2019-04-30T20:31:04.317Z,17.37
2019-04-30T20:33:36.129Z,17.25
2019-04-30T20:36:09.186Z,17.24
2019-04-30T20:39:18.413Z,17.10
2019-04-30T20:41:52.867Z,17.08
2019-04-30T20:44:24.700Z,17.08
2019-04-30T20:46:56.548Z,16.92
2019-04-30T20:49:29.204Z,16.89
2019-04-30T20:52:03.553Z,16.84
2019-04-30T20:54:38.956Z,16.82
2019-04-30T20:57:10.736Z,16.82
2019-04-30T20:59:42.595Z,16.81
2019-04-30T21:02:18.770Z,16.82
2019-04-30T21:04:52.338Z,16.55
2019-04-30T21:07:24.140Z,16.59
2019-04-30T21:09:58.305Z,16.47
2019-04-30T21:12:30.037Z,16.49
2019-04-30T21:15:01.941Z,16.49
2019-04-30T21:17:34.921Z,16.49
2019-04-30T21:20:09.484Z,16.40
2019-04-30T21:22:42.204Z,16.38
2019-04-30T21:25:14.052Z,16.35
2019-04-30T21:27:45.919Z,16.23
2019-04-30T21:30:17.767Z,16.24
2019-04-30T21:33:11.240Z,16.13
2019-04-30T21:36:08.803Z,16.15
2019-04-30T21:38:41.907Z,16.15
2019-04-30T21:41:19.577Z,16.00
2019-04-30T21:43:51.727Z,16.01
2019-04-30T21:46:25.217Z,15.94
2019-04-30T21:48:58.724Z,15.95
2019-04-30T21:51:30.801Z,15.85
2019-04-30T21:54:02.831Z,15.80
2019-04-30T21:56:37.583Z,15.69
2019-04-30T21:59:23.541Z,15.69
2019-04-30T22:01:44.522Z,15.71
2019-04-30T22:04:16.493Z,15.71
2019-04-30T22:06:49.475Z,15.62
2019-04-30T22:09:21.719Z,15.50
2019-04-30T22:11:53.548Z,15.61
2019-04-30T22:14:25.449Z,15.51
2019-04-30T22:16:59.548Z,15.53
2019-04-30T22:19:31.319Z,15.39
2019-04-30T22:22:03.182Z,15.33
2019-04-30T22:24:35.089Z,15.27
2019-04-30T22:27:06.991Z,15.22
2019-04-30T22:29:42.320Z,15.10
2019-04-30T22:32:14.230Z,15.17
2019-04-30T22:34:46.025Z,15.10
2019-04-30T22:37:19.619Z,15.10
2019-04-30T22:40:02.887Z,15.14
2019-04-30T22:42:36.912Z,15.03
2019-04-30T22:45:30.627Z,14.95
2019-04-30T22:48:02.970Z,14.90
2019-04-30T22:50:35.213Z,14.89
2019-04-30T22:53:07.091Z,14.80
2019-04-30T22:55:38.872Z,14.82
2019-04-30T22:58:12.118Z,14.81
2019-04-30T23:00:46.008Z,14.78
2019-04-30T23:03:24.265Z,14.80
2019-04-30T23:05:56.163Z,14.78
2019-04-30T23:08:28.110Z,14.73
2019-04-30T23:11:00.410Z,14.65
2019-04-30T23:13:32.194Z,14.67
2019-04-30T23:16:04.115Z,14.42
2019-04-30T23:18:38.982Z,14.50
2019-04-30T23:21:11.983Z,14.44
2019-04-30T23:23:43.839Z,14.50
2019-04-30T23:26:15.676Z,14.38
2019-04-30T23:28:49.163Z,14.32
2019-04-30T23:31:21.496Z,14.39
2019-04-30T23:33:53.474Z,14.35
2019-04-30T23:36:25.243Z,14.23
2019-04-30T23:38:59.396Z,14.20
2019-04-30T23:41:33.709Z,14.18
2019-04-30T23:44:06.466Z,14.07
2019-04-30T23:46:39.791Z,14.07
2019-04-30T23:49:11.834Z,14.10
2019-04-30T23:51:43.667Z,14.06
2019-04-30T23:54:15.979Z,14.07
2019-04-30T23:56:47.803Z,14.07
2019-04-30T23:59:19.662Z,14.11
